Time;durP1;ratioP1;P1;durP2;ratioP2;P2;SDS_P1;SDS_P2;PMS_P1;PMS_P2;Temp;Humidity;BMP_temperature;BMP_pressure;BME280_temperature;BME280_humidity;BME280_pressure;Samples;Min_cycle;Max_cycle;Signal;HPM_P1;HPM_P2
2023/04/27 00:01:14;;;;;;;5.47;4.93;;;10.50;99.90;;;;;;4947058;29;20208;-59
2023/04/27 00:03:44;;;;;;;5.50;5.10;;;10.60;99.90;;;;;;4938301;29;20212;-59
2023/04/27 00:06:11;;;;;;;8.33;5.50;;;10.50;99.90;;;;;;4956482;29;20257;-60
2023/04/27 00:08:38;;;;;;;5.73;5.33;;;10.60;99.90;;;;;;4953706;29;20211;-59
2023/04/27 00:11:06;;;;;;;5.93;5.43;;;10.60;99.90;;;;;;4954471;29;20652;-59
2023/04/27 00:13:33;;;;;;;4.90;4.50;;;10.60;99.90;;;;;;4956078;29;20216;-60
2023/04/27 00:16:02;;;;;;;6.20;5.70;;;10.60;99.90;;;;;;4948376;29;20204;-59
2023/04/27 00:18:29;;;;;;;5.37;4.90;;;10.60;99.90;;;;;;4948414;29;20253;-59
2023/04/27 00:20:58;;;;;;;7.57;5.83;;;10.70;99.90;;;;;;4954413;29;20227;-59
2023/04/27 00:23:25;;;;;;;6.47;5.80;;;10.70;99.90;;;;;;4954701;29;20290;-60
2023/04/27 00:25:52;;;;;;;6.67;5.63;;;10.70;99.90;;;;;;4955286;29;20615;-59
2023/04/27 00:28:19;;;;;;;6.10;5.50;;;10.60;99.90;;;;;;4955992;29;20203;-60
2023/04/27 00:30:47;;;;;;;6.97;5.67;;;10.60;99.90;;;;;;4956224;29;20237;-60
2023/04/27 00:33:14;;;;;;;4.97;4.37;;;10.50;99.90;;;;;;4951282;28;20339;-59
2023/04/27 00:35:41;;;;;;;7.03;5.30;;;10.40;99.90;;;;;;4955776;29;20246;-60
2023/04/27 00:38:11;;;;;;;5.67;5.27;;;10.30;99.90;;;;;;4955910;29;20208;-60
2023/04/27 00:40:38;;;;;;;6.27;5.67;;;10.30;99.90;;;;;;4955799;29;20227;-59
2023/04/27 00:43:05;;;;;;;5.00;4.60;;;10.30;99.90;;;;;;4955588;29;20201;-59
2023/04/27 00:45:35;;;;;;;5.17;4.77;;;10.30;99.90;;;;;;4955257;29;20262;-59
2023/04/27 00:48:02;;;;;;;5.40;4.90;;;10.20;99.90;;;;;;4954800;28;20269;-59
2023/04/27 00:50:30;;;;;;;8.30;7.27;;;10.20;99.90;;;;;;4953767;29;20223;-59
2023/04/27 00:52:57;;;;;;;6.47;5.90;;;10.20;99.90;;;;;;4955696;29;20215;-59
2023/04/27 00:55:25;;;;;;;5.53;5.13;;;10.20;99.90;;;;;;4954761;29;20641;-59
2023/04/27 00:57:52;;;;;;;5.37;4.97;;;10.10;99.90;;;;;;4955734;29;20642;-59
2023/04/27 01:00:19;;;;;;;5.83;5.43;;;10.10;99.90;;;;;;4950228;29;20225;-59
2023/04/27 01:02:47;;;;;;;6.57;5.97;;;10.00;99.90;;;;;;4955455;29;20205;-59
2023/04/27 01:05:15;;;;;;;5.70;5.20;;;9.90;99.90;;;;;;4954104;29;20207;-59
2023/04/27 01:07:42;;;;;;;5.17;4.60;;;9.90;99.90;;;;;;4949066;29;20194;-59
2023/04/27 01:10:10;;;;;;;7.87;6.70;;;9.90;99.90;;;;;;4954113;29;20301;-59
2023/04/27 01:12:38;;;;;;;5.57;4.90;;;9.90;99.90;;;;;;4953206;29;20226;-59
2023/04/27 01:15:07;;;;;;;4.63;4.23;;;9.90;99.90;;;;;;4954363;29;20271;-59
2023/04/27 01:17:34;;;;;;;5.30;4.90;;;9.80;99.90;;;;;;4952793;29;20198;-59
2023/04/27 01:20:01;;;;;;;5.53;4.60;;;9.80;99.90;;;;;;4946211;29;20226;-60
2023/04/27 01:22:28;;;;;;;4.97;4.67;;;9.80;99.90;;;;;;4954854;29;20207;-60
2023/04/27 01:24:56;;;;;;;5.63;3.97;;;9.80;99.90;;;;;;4952750;29;20199;-60
2023/04/27 01:27:26;;;;;;;5.70;5.10;;;9.80;99.90;;;;;;4955061;29;20199;-59
2023/04/27 01:29:53;;;;;;;5.03;4.60;;;9.80;99.90;;;;;;4953215;29;20269;-59
2023/04/27 01:32:23;;;;;;;5.50;5.03;;;9.90;99.90;;;;;;4952198;29;20280;-59
2023/04/27 01:34:50;;;;;;;10.00;5.83;;;9.90;99.90;;;;;;4953240;29;20347;-60
2023/04/27 01:37:17;;;;;;;4.53;4.20;;;9.90;99.90;;;;;;4947634;29;20204;-59
2023/04/27 01:39:45;;;;;;;5.93;3.77;;;9.90;99.90;;;;;;4953978;29;20324;-60
2023/04/27 01:42:13;;;;;;;4.83;4.43;;;9.90;99.90;;;;;;4952570;29;20266;-59
2023/04/27 01:44:40;;;;;;;5.97;4.30;;;9.90;99.90;;;;;;4953933;29;20639;-59
2023/04/27 01:47:07;;;;;;;4.37;4.07;;;9.90;99.90;;;;;;4953684;29;20275;-59
2023/04/27 01:49:34;;;;;;;4.97;4.57;;;9.90;99.90;;;;;;4952264;29;20293;-59
2023/04/27 01:52:01;;;;;;;5.43;4.97;;;9.90;99.90;;;;;;4954608;29;20282;-59
2023/04/27 01:54:28;;;;;;;5.50;4.97;;;10.00;99.90;;;;;;4954578;29;20212;-60
2023/04/27 01:56:55;;;;;;;6.30;5.30;;;9.90;99.90;;;;;;4954562;29;20222;-60
2023/04/27 01:59:23;;;;;;;6.17;5.47;;;9.90;99.90;;;;;;4952791;28;20318;-59
2023/04/27 02:01:50;;;;;;;5.83;4.17;;;10.00;99.90;;;;;;4952345;29;20207;-59
2023/04/27 02:04:17;;;;;;;5.23;4.53;;;10.00;99.90;;;;;;4953314;29;20205;-60
2023/04/27 02:06:44;;;;;;;6.67;5.30;;;10.00;99.90;;;;;;4952587;29;20259;-59
2023/04/27 02:09:11;;;;;;;4.33;4.10;;;10.00;99.90;;;;;;4953528;29;20654;-60
2023/04/27 02:11:38;;;;;;;4.27;3.90;;;10.10;99.90;;;;;;4953799;29;20235;-59
2023/04/27 02:14:05;;;;;;;5.20;4.70;;;10.10;99.90;;;;;;4953963;29;20267;-59
2023/04/27 02:16:34;;;;;;;5.67;5.13;;;10.00;99.90;;;;;;4953287;29;20251;-59
2023/04/27 02:19:01;;;;;;;5.40;4.90;;;10.00;99.90;;;;;;4953078;29;20284;-59
2023/04/27 02:21:29;;;;;;;4.97;4.50;;;10.00;99.90;;;;;;4952415;29;20714;-59
2023/04/27 02:23:55;;;;;;;4.47;4.17;;;9.90;99.90;;;;;;4948966;29;20231;-59
2023/04/27 02:26:28;;;;;;;5.87;5.37;;;9.90;99.90;;;;;;4952825;29;20642;-60
2023/04/27 02:28:55;;;;;;;6.07;5.47;;;9.80;99.90;;;;;;4953663;29;20204;-59
2023/04/27 02:31:22;;;;;;;5.60;5.10;;;9.80;99.90;;;;;;4953366;29;20242;-60
2023/04/27 02:33:50;;;;;;;6.33;5.17;;;9.80;99.90;;;;;;4953424;29;20235;-59
2023/04/27 02:36:17;;;;;;;6.53;5.77;;;9.80;99.90;;;;;;4953978;29;20330;-59
2023/04/27 02:38:44;;;;;;;5.97;5.47;;;9.80;99.90;;;;;;4951941;29;20748;-59
2023/04/27 02:41:11;;;;;;;5.13;4.83;;;9.80;99.90;;;;;;4953498;29;20225;-59
2023/04/27 02:43:38;;;;;;;5.40;4.63;;;9.80;99.90;;;;;;4953345;29;20251;-60
2023/04/27 02:46:06;;;;;;;6.23;5.63;;;9.80;99.90;;;;;;4953740;29;20343;-59
2023/04/27 02:48:33;;;;;;;6.33;5.77;;;9.80;99.90;;;;;;4953740;29;20208;-60
2023/04/27 02:51:04;;;;;;;7.40;5.77;;;9.80;99.90;;;;;;4953640;29;20262;-59
2023/04/27 02:53:31;;;;;;;5.67;5.17;;;9.70;99.90;;;;;;4952456;29;20255;-59
2023/04/27 02:55:58;;;;;;;5.43;4.73;;;9.80;99.90;;;;;;4952164;29;20205;-60
2023/04/27 02:58:26;;;;;;;6.10;5.60;;;9.80;99.90;;;;;;4952078;29;20263;-59
2023/04/27 03:00:55;;;;;;;6.60;5.43;;;9.80;99.90;;;;;;4949916;29;20653;-60
2023/04/27 03:03:22;;;;;;;6.27;5.80;;;9.70;99.90;;;;;;4943484;29;20207;-60
2023/04/27 03:05:49;;;;;;;5.13;4.70;;;9.80;99.90;;;;;;4953318;29;20634;-60
2023/04/27 03:08:18;;;;;;;6.13;5.50;;;9.80;99.90;;;;;;4951762;29;20265;-60
2023/04/27 03:10:45;;;;;;;6.00;5.60;;;9.80;99.90;;;;;;4952904;28;20657;-59
2023/04/27 03:13:12;;;;;;;6.13;5.23;;;9.80;99.90;;;;;;4952200;29;20228;-59
2023/04/27 03:15:39;;;;;;;5.90;5.23;;;9.80;99.90;;;;;;4953089;29;20197;-59
2023/04/27 03:18:06;;;;;;;4.87;4.37;;;9.80;99.90;;;;;;4953118;29;20301;-60
2023/04/27 03:20:33;;;;;;;6.60;5.63;;;9.80;99.90;;;;;;4951501;29;20270;-59
2023/04/27 03:23:00;;;;;;;7.23;5.93;;;9.70;99.90;;;;;;4952592;29;20669;-59
2023/04/27 03:25:28;;;;;;;6.47;5.50;;;9.70;99.90;;;;;;4952914;29;20637;-60
2023/04/27 03:27:55;;;;;;;6.40;5.10;;;9.70;99.90;;;;;;4953078;29;20275;-60
2023/04/27 03:30:22;;;;;;;5.43;4.93;;;9.80;99.90;;;;;;4951327;29;20226;-59
2023/04/27 03:32:49;;;;;;;5.83;5.27;;;9.70;99.90;;;;;;4952748;29;20223;-59
2023/04/27 03:35:16;;;;;;;6.80;5.20;;;9.70;99.90;;;;;;4952196;29;20207;-59
2023/04/27 03:37:44;;;;;;;6.10;5.53;;;9.70;99.90;;;;;;4952845;29;20582;-59
2023/04/27 03:40:13;;;;;;;6.17;5.57;;;9.70;99.90;;;;;;4951051;29;20308;-60
2023/04/27 03:42:41;;;;;;;5.63;5.30;;;9.80;99.90;;;;;;4952639;29;20201;-59
2023/04/27 03:45:11;;;;;;;6.70;5.60;;;9.80;99.90;;;;;;4952285;29;20294;-59
2023/04/27 03:47:37;;;;;;;6.70;6.07;;;9.70;99.90;;;;;;4951375;29;20207;-60
2023/04/27 03:50:05;;;;;;;5.90;5.40;;;9.80;99.90;;;;;;4952694;29;20220;-59
2023/04/27 03:52:32;;;;;;;5.37;4.97;;;9.70;99.90;;;;;;4952413;29;20273;-59
2023/04/27 03:54:59;;;;;;;5.23;4.73;;;9.70;99.90;;;;;;4951899;29;20260;-59
2023/04/27 03:57:27;;;;;;;5.03;4.73;;;9.70;99.90;;;;;;4952919;29;20204;-59
2023/04/27 03:59:57;;;;;;;5.70;5.30;;;9.70;99.90;;;;;;4949969;29;20221;-59
2023/04/27 04:02:24;;;;;;;5.97;5.53;;;9.70;99.90;;;;;;4949591;29;20205;-60
2023/04/27 04:04:51;;;;;;;5.87;5.33;;;9.70;99.90;;;;;;4951769;29;20255;-59
2023/04/27 04:07:18;;;;;;;6.73;4.97;;;9.70;99.90;;;;;;4952736;29;20208;-60
2023/04/27 04:09:45;;;;;;;5.57;5.13;;;9.70;99.90;;;;;;4951010;29;20239;-59
2023/04/27 04:12:12;;;;;;;4.67;4.23;;;9.60;99.90;;;;;;4952345;29;20211;-59
2023/04/27 04:14:39;;;;;;;8.33;5.33;;;9.70;99.90;;;;;;4951895;29;20205;-59
2023/04/27 04:17:09;;;;;;;7.43;4.57;;;9.60;99.90;;;;;;4951079;29;20205;-59
2023/04/27 04:19:36;;;;;;;5.63;5.00;;;9.70;99.90;;;;;;4952290;29;20237;-59
2023/04/27 04:22:03;;;;;;;5.27;4.90;;;9.60;99.90;;;;;;4953588;28;20638;-59
2023/04/27 04:24:30;;;;;;;6.30;5.23;;;9.60;99.90;;;;;;4936816;29;20699;-60
2023/04/27 04:26:57;;;;;;;7.10;5.10;;;9.60;99.90;;;;;;4937016;29;20260;-59
2023/04/27 04:29:24;;;;;;;7.13;5.67;;;9.60;99.90;;;;;;4938604;29;20336;-59
2023/04/27 04:31:51;;;;;;;6.87;6.17;;;9.60;99.90;;;;;;4953408;29;20206;-59
2023/04/27 04:34:21;;;;;;;5.87;4.93;;;9.60;99.90;;;;;;4955597;29;20718;-59
2023/04/27 04:36:50;;;;;;;5.77;5.27;;;9.60;99.90;;;;;;4954787;29;20290;-59
2023/04/27 04:39:18;;;;;;;6.10;5.50;;;9.60;99.90;;;;;;4947885;29;20647;-60
2023/04/27 04:41:45;;;;;;;6.10;5.27;;;9.70;99.90;;;;;;4955990;29;20261;-59
2023/04/27 04:44:12;;;;;;;6.57;5.97;;;9.70;99.90;;;;;;4955699;29;20207;-59
2023/04/27 04:46:39;;;;;;;6.37;5.73;;;9.70;99.90;;;;;;4953926;29;20681;-59
2023/04/27 04:49:06;;;;;;;7.53;6.83;;;9.70;99.90;;;;;;4946862;29;20837;-59
2023/04/27 04:51:35;;;;;;;5.90;5.30;;;9.70;99.90;;;;;;4955712;29;20560;-59
2023/04/27 04:54:02;;;;;;;6.23;5.63;;;9.70;99.90;;;;;;4953465;29;20238;-59
2023/04/27 04:56:29;;;;;;;6.43;5.57;;;9.70;99.90;;;;;;4944126;29;20207;-60
2023/04/27 04:58:55;;;;;;;6.40;5.90;;;9.70;99.90;;;;;;4951016;29;20265;-59
2023/04/27 05:01:22;;;;;;;7.53;6.00;;;9.60;99.90;;;;;;4952503;29;20336;-59
2023/04/27 05:03:49;;;;;;;8.97;5.20;;;9.60;99.90;;;;;;4954507;29;20199;-59
2023/04/27 05:06:16;;;;;;;9.50;6.27;;;9.50;99.90;;;;;;4953606;29;20209;-59
2023/04/27 05:08:45;;;;;;;5.97;5.37;;;9.60;99.90;;;;;;4947912;29;20203;-59
2023/04/27 05:11:12;;;;;;;7.20;6.47;;;9.70;99.90;;;;;;4953144;29;20239;-59
2023/04/27 05:13:39;;;;;;;7.27;6.17;;;9.70;99.90;;;;;;4953727;29;20281;-59
2023/04/27 05:16:07;;;;;;;6.67;6.07;;;9.70;99.90;;;;;;4955982;29;20211;-59
2023/04/27 05:18:34;;;;;;;10.70;5.30;;;9.70;99.90;;;;;;4955426;29;20211;-59
2023/04/27 05:21:01;;;;;;;5.73;5.27;;;9.80;99.90;;;;;;4954112;29;20229;-59
2023/04/27 05:23:28;;;;;;;10.23;5.70;;;9.80;99.90;;;;;;4951426;29;20201;-59
2023/04/27 05:25:56;;;;;;;7.87;5.70;;;9.80;99.90;;;;;;4947384;29;20577;-59
2023/04/27 05:28:23;;;;;;;7.07;5.53;;;9.80;99.90;;;;;;4949916;29;21176;-60
2023/04/27 05:30:50;;;;;;;8.03;5.97;;;9.90;99.90;;;;;;4949874;29;20564;-59
2023/04/27 05:33:17;;;;;;;6.20;5.57;;;9.80;99.90;;;;;;4952700;28;20231;-58
2023/04/27 05:35:44;;;;;;;6.23;5.57;;;9.80;99.90;;;;;;4952394;29;20728;-59
2023/04/27 05:38:13;;;;;;;7.87;5.03;;;9.80;99.90;;;;;;4953155;29;20199;-59
2023/04/27 05:40:41;;;;;;;6.15;5.57;;;9.90;99.90;;;;;;4952169;29;20488;-59
2023/04/27 05:43:10;;;;;;;8.68;5.43;;;10.00;99.90;;;;;;4942610;29;20520;-63
2023/04/27 05:45:39;;;;;;;5.83;5.20;;;10.00;99.90;;;;;;4954239;29;20199;-62
2023/04/27 05:48:06;;;;;;;5.13;4.73;;;10.10;99.90;;;;;;4953654;28;20219;-63
2023/04/27 05:50:33;;;;;;;4.70;4.33;;;9.50;99.90;;;;;;4954418;29;20229;-63
2023/04/27 05:53:00;;;;;;;7.17;4.60;;;10.10;99.90;;;;;;4945898;29;20664;-63
2023/04/27 05:55:28;;;;;;;5.63;4.23;;;10.10;99.90;;;;;;4952487;29;20211;-63
2023/04/27 05:57:55;;;;;;;10.80;5.10;;;10.20;99.90;;;;;;4949366;29;20279;-60
2023/04/27 06:00:24;;;;;;;4.63;4.20;;;10.40;99.90;;;;;;4954255;29;20646;-60
2023/04/27 06:02:51;;;;;;;5.30;4.67;;;10.40;99.90;;;;;;4950311;29;20211;-60
2023/04/27 06:05:18;;;;;;;6.07;4.00;;;10.50;99.90;;;;;;4950831;29;20225;-60
2023/04/27 06:07:45;;;;;;;5.17;4.17;;;10.50;99.90;;;;;;4954015;29;20265;-60
2023/04/27 06:10:12;;;;;;;8.13;5.40;;;10.60;99.90;;;;;;4954076;29;20314;-60
2023/04/27 06:12:39;;;;;;;6.73;4.77;;;10.40;99.90;;;;;;4941255;29;20214;-62
2023/04/27 06:15:08;;;;;;;7.27;4.50;;;10.50;99.90;;;;;;4949280;29;20223;-62
2023/04/27 06:17:37;;;;;;;6.03;4.30;;;10.50;99.90;;;;;;4945153;29;20199;-65
2023/04/27 06:20:05;;;;;;;6.43;4.83;;;10.70;99.90;;;;;;4951177;29;20223;-61
2023/04/27 06:22:32;;;;;;;5.23;4.83;;;10.70;99.90;;;;;;4951544;29;20206;-63
2023/04/27 06:24:59;;;;;;;5.03;4.63;;;10.70;99.90;;;;;;4945474;29;20255;-63
2023/04/27 06:27:26;;;;;;;4.47;4.07;;;10.70;99.90;;;;;;4953234;29;20205;-64
2023/04/27 06:29:53;;;;;;;5.23;4.73;;;10.70;99.90;;;;;;4951875;29;20326;-64
2023/04/27 06:32:20;;;;;;;6.53;4.87;;;10.70;99.90;;;;;;4950455;29;20287;-65
2023/04/27 06:34:50;;;;;;;6.40;5.00;;;10.70;99.90;;;;;;4949994;28;20268;-64
2023/04/27 06:37:17;;;;;;;6.20;5.03;;;10.80;99.90;;;;;;4950388;29;20295;-64
2023/04/27 06:39:44;;;;;;;5.77;4.73;;;10.90;99.90;;;;;;4953460;29;20573;-65
2023/04/27 06:42:12;;;;;;;11.83;4.97;;;10.90;99.90;;;;;;4953664;29;20210;-65
2023/04/27 06:44:39;;;;;;;4.53;4.23;;;11.00;99.90;;;;;;4953023;28;20670;-65
2023/04/27 06:47:06;;;;;;;6.73;4.87;;;11.00;99.90;;;;;;4953611;29;20264;-64
2023/04/27 06:49:33;;;;;;;4.27;4.00;;;11.10;99.90;;;;;;4948459;29;20226;-65
2023/04/27 06:52:02;;;;;;;5.30;4.63;;;11.10;99.90;;;;;;4948593;29;20197;-60
2023/04/27 06:54:29;;;;;;;5.63;4.33;;;11.10;99.90;;;;;;4952837;29;20233;-61
2023/04/27 06:56:56;;;;;;;5.30;4.43;;;11.10;99.90;;;;;;4953558;29;20211;-61
2023/04/27 06:59:23;;;;;;;7.27;4.63;;;11.10;99.90;;;;;;4953451;29;20286;-61
2023/04/27 07:01:50;;;;;;;5.13;4.30;;;11.20;99.90;;;;;;4948143;29;20204;-61
2023/04/27 07:04:17;;;;;;;5.53;3.73;;;11.30;99.90;;;;;;4944285;29;20208;-61
2023/04/27 07:06:44;;;;;;;5.20;4.73;;;11.50;99.90;;;;;;4953312;29;20655;-60
2023/04/27 07:09:12;;;;;;;4.77;4.10;;;11.60;99.90;;;;;;4953311;29;20294;-61
2023/04/27 07:11:40;;;;;;;10.03;4.53;;;11.70;99.90;;;;;;4953285;29;20294;-61
2023/04/27 07:14:07;;;;;;;5.57;4.57;;;11.80;99.90;;;;;;4953108;29;20235;-61
2023/04/27 07:16:34;;;;;;;9.43;4.50;;;11.90;99.90;;;;;;4953849;29;20208;-60
2023/04/27 07:19:01;;;;;;;5.80;4.20;;;11.90;99.90;;;;;;4944239;29;20208;-61
2023/04/27 07:21:28;;;;;;;4.30;4.00;;;11.80;99.90;;;;;;4953122;29;20696;-60
2023/04/27 07:23:55;;;;;;;7.80;6.20;;;11.70;99.90;;;;;;4953009;29;20203;-61
2023/04/27 07:26:23;;;;;;;4.33;4.03;;;11.70;99.90;;;;;;4953301;29;20205;-60
2023/04/27 07:28:51;;;;;;;5.13;4.73;;;11.80;99.90;;;;;;4953030;29;20205;-60
2023/04/27 07:31:18;;;;;;;5.07;4.20;;;11.90;99.90;;;;;;4953022;29;20260;-60
2023/04/27 07:33:45;;;;;;;4.87;4.43;;;12.10;99.90;;;;;;4944261;29;20232;-61
2023/04/27 07:36:12;;;;;;;5.17;4.77;;;12.30;99.90;;;;;;4953107;29;20297;-61
2023/04/27 07:38:39;;;;;;;6.90;4.97;;;12.30;99.90;;;;;;4953110;29;20203;-61
2023/04/27 07:41:06;;;;;;;5.13;4.63;;;12.30;99.90;;;;;;4952898;29;20721;-61
2023/04/27 07:43:34;;;;;;;8.07;5.57;;;12.50;99.90;;;;;;4952671;29;20204;-61
2023/04/27 07:46:02;;;;;;;7.13;4.47;;;12.60;99.90;;;;;;4951969;29;20208;-60
2023/04/27 07:48:29;;;;;;;5.80;5.20;;;12.70;99.90;;;;;;4944979;29;20255;-61
2023/04/27 07:50:57;;;;;;;4.87;4.37;;;12.80;99.90;;;;;;4952853;29;20230;-61
2023/04/27 07:53:24;;;;;;;6.00;4.90;;;13.00;99.90;;;;;;4952644;29;20235;-61
2023/04/27 07:55:51;;;;;;;5.23;4.03;;;13.30;99.90;;;;;;4952896;28;20220;-61
2023/04/27 07:58:18;;;;;;;4.67;4.27;;;13.30;99.90;;;;;;4956637;29;20212;-61
2023/04/27 08:00:47;;;;;;;6.77;4.73;;;13.30;99.90;;;;;;4955612;29;20257;-61
2023/04/27 08:03:14;;;;;;;4.23;4.03;;;13.30;99.90;;;;;;4955031;29;20202;-61
2023/04/27 08:05:41;;;;;;;4.87;4.47;;;13.30;99.90;;;;;;4956739;29;20196;-61
2023/04/27 08:08:07;;;;;;;4.83;4.40;;;13.30;99.90;;;;;;4956539;29;20670;-61
2023/04/27 08:10:36;;;;;;;7.17;4.27;;;13.20;99.90;;;;;;4956389;29;20766;-61
2023/04/27 08:13:04;;;;;;;4.70;4.20;;;13.20;99.90;;;;;;4956634;29;20220;-61
2023/04/27 08:15:31;;;;;;;12.73;4.70;;;13.20;99.90;;;;;;4951985;29;20349;-61
2023/04/27 08:17:59;;;;;;;5.37;4.97;;;13.10;99.90;;;;;;4944425;29;20209;-61
2023/04/27 08:20:26;;;;;;;7.07;5.70;;;12.90;99.90;;;;;;4953911;29;20447;-61
2023/04/27 08:22:53;;;;;;;5.23;4.73;;;12.90;99.90;;;;;;4955821;29;20237;-61
2023/04/27 08:25:20;;;;;;;4.63;4.37;;;12.90;99.90;;;;;;4956107;29;20204;-61
2023/04/27 08:27:47;;;;;;;9.63;4.07;;;12.90;99.90;;;;;;4956216;29;20263;-60
2023/04/27 08:30:14;;;;;;;5.20;4.70;;;13.00;99.90;;;;;;4953853;29;20242;-64
2023/04/27 08:32:41;;;;;;;5.27;4.33;;;13.20;99.90;;;;;;4949600;29;20283;-62
2023/04/27 08:35:10;;;;;;;6.03;4.87;;;13.50;99.90;;;;;;4955901;29;20228;-65
2023/04/27 08:37:37;;;;;;;4.83;4.20;;;13.80;99.90;;;;;;4955769;29;20201;-66
2023/04/27 08:40:06;;;;;;;5.30;4.40;;;14.00;99.90;;;;;;4955714;29;20292;-65
2023/04/27 08:42:34;;;;;;;5.63;5.23;;;14.20;99.90;;;;;;4955799;29;20295;-63
2023/04/27 08:45:01;;;;;;;4.43;4.00;;;14.10;99.90;;;;;;4947427;29;20667;-65
2023/04/27 08:47:28;;;;;;;6.37;4.80;;;14.20;99.90;;;;;;4955679;29;20197;-64
2023/04/27 08:49:55;;;;;;;4.63;4.20;;;14.50;99.90;;;;;;4955619;29;20232;-64
2023/04/27 08:52:27;;;;;;;25.80;5.80;;;14.60;99.90;;;;;;4955541;29;20216;-64
2023/04/27 08:54:54;;;;;;;4.40;4.00;;;15.30;99.90;;;;;;4955482;29;20232;-67
2023/04/27 08:57:21;;;;;;;4.30;3.90;;;16.60;99.90;;;;;;4955701;29;20265;-66
2023/04/27 08:59:58;;;;;;;3.97;3.67;;;18.10;99.90;;;;;;4948184;29;20721;-66
2023/04/27 09:02:29;;;;;;;4.50;4.30;;;19.10;99.90;;;;;;4954899;29;20228;-65
2023/04/27 09:04:56;;;;;;;4.73;4.40;;;20.00;99.90;;;;;;4955306;29;20205;-65
2023/04/27 09:07:28;;;;;;;4.73;4.37;;;20.40;99.90;;;;;;4955151;28;20213;-65
2023/04/27 09:10:02;;;;;;;5.10;4.70;;;20.50;99.90;;;;;;4955036;29;20244;-65
2023/04/27 09:12:29;;;;;;;3.70;3.50;;;19.90;99.90;;;;;;4954202;29;20215;-64
2023/04/27 09:14:57;;;;;;;4.60;4.20;;;19.90;99.90;;;;;;4946556;29;20593;-64
2023/04/27 09:17:29;;;;;;;4.33;3.20;;;19.80;99.90;;;;;;4955015;29;20268;-64
2023/04/27 09:20:07;;;;;;;6.10;3.43;;;20.10;99.90;;;;;;4954973;29;20722;-65
2023/04/27 09:22:44;;;;;;;4.27;3.67;;;20.10;99.90;;;;;;4954944;29;20208;-65
2023/04/27 09:25:22;;;;;;;3.80;3.40;;;19.80;99.90;;;;;;4955536;29;20205;-62
2023/04/27 09:27:49;;;;;;;4.80;2.80;;;19.70;99.90;;;;;;4948042;29;20671;-65
2023/04/27 09:30:16;;;;;;;3.97;3.57;;;20.30;99.90;;;;;;4951994;29;20242;-63
2023/04/27 09:32:51;;;;;;;4.00;3.70;;;20.30;99.90;;;;;;4949399;29;20252;-63
2023/04/27 09:35:22;;;;;;;3.60;3.40;;;20.30;99.90;;;;;;4952616;29;20232;-62
2023/04/27 09:37:52;;;;;;;3.33;3.20;;;20.00;99.90;;;;;;4954952;29;20201;-66
2023/04/27 09:40:22;;;;;;;4.57;4.27;;;21.00;99.90;;;;;;4954752;29;20317;-64
2023/04/27 09:42:50;;;;;;;4.30;4.00;;;21.00;99.90;;;;;;4952038;29;20227;-63
2023/04/27 09:45:18;;;;;;;4.33;3.43;;;20.80;99.90;;;;;;4953679;29;20253;-65
2023/04/27 09:47:45;;;;;;;4.30;3.37;;;20.30;99.90;;;;;;4954711;29;20209;-63
2023/04/27 09:50:13;;;;;;;3.30;3.20;;;19.70;99.90;;;;;;4954662;29;20587;-65
2023/04/27 09:52:40;;;;;;;3.27;2.97;;;19.50;99.90;;;;;;4954273;29;20201;-65
2023/04/27 09:55:11;;;;;;;3.60;3.40;;;19.50;99.90;;;;;;4954467;29;20774;-65
2023/04/27 09:57:47;;;;;;;5.77;4.07;;;20.40;99.90;;;;;;4944935;29;20702;-64
2023/04/27 10:00:33;;;;;;;3.43;3.13;;;20.70;99.90;;;;;;4953887;29;20225;-63
2023/04/27 10:03:14;;;;;;;3.00;2.70;;;20.80;99.90;;;;;;4954154;29;20247;-64
2023/04/27 10:06:14;;;;;;;2.00;1.90;;;21.30;99.90;;;;;;4887052;29;20414;-65
2023/04/27 10:08:42;;;;;;;2.90;2.67;;;22.30;99.90;;;;;;4878647;29;20272;-64
2023/04/27 10:11:17;;;;;;;2.47;2.27;;;22.20;99.90;;;;;;4882984;29;20231;-64
2023/04/27 10:13:52;;;;;;;3.00;2.73;;;22.60;99.90;;;;;;4896707;29;20207;-65
2023/04/27 10:16:20;;;;;;;2.50;1.80;;;22.60;99.90;;;;;;4897260;29;20233;-66
2023/04/27 10:18:52;;;;;;;2.83;1.67;;;22.80;99.90;;;;;;4896666;29;20215;-67
2023/04/27 10:21:19;;;;;;;1.83;1.73;;;23.10;99.90;;;;;;4898963;29;20233;-67
2023/04/27 10:23:49;;;;;;;2.50;2.27;;;23.90;99.90;;;;;;4894723;29;20202;-66
2023/04/27 10:26:24;;;;;;;2.33;2.13;;;23.20;99.90;;;;;;4887758;29;20210;-66
2023/04/27 10:29:07;;;;;;;3.00;2.80;;;22.30;99.90;;;;;;4899391;29;20199;-62
2023/04/27 10:31:34;;;;;;;3.83;3.20;;;21.70;99.90;;;;;;4896750;29;20262;-64
2023/04/27 10:34:08;;;;;;;4.03;3.60;;;20.70;99.90;;;;;;4890552;29;20214;-63
2023/04/27 10:36:37;;;;;;;3.20;2.90;;;19.80;99.90;;;;;;4890560;29;20673;-64
2023/04/27 10:39:13;;;;;;;3.40;3.20;;;19.40;99.90;;;;;;4894339;29;20223;-64
2023/04/27 10:41:49;;;;;;;3.50;3.30;;;18.80;99.90;;;;;;4891938;29;20290;-64
2023/04/27 10:44:17;;;;;;;5.20;3.50;;;18.20;99.90;;;;;;4900252;29;20210;-61
2023/04/27 10:46:51;;;;;;;3.80;3.47;;;18.00;99.90;;;;;;4896185;29;20259;-61
2023/04/27 10:49:18;;;;;;;3.93;3.60;;;18.00;99.90;;;;;;4896316;29;20237;-61
2023/04/27 10:51:45;;;;;;;3.00;2.80;;;17.50;99.90;;;;;;4896597;29;20290;-61
2023/04/27 10:54:13;;;;;;;3.90;2.80;;;17.30;99.90;;;;;;4893822;29;20199;-61
2023/04/27 10:56:41;;;;;;;3.37;2.87;;;17.30;99.90;;;;;;4887022;29;20203;-61
2023/04/27 10:59:09;;;;;;;3.63;3.13;;;17.50;99.90;;;;;;4895937;29;20203;-61
2023/04/27 11:01:37;;;;;;;2.17;1.90;;;17.70;99.90;;;;;;4895890;29;20207;-63
2023/04/27 11:04:04;;;;;;;3.30;2.67;;;18.00;99.90;;;;;;4895943;29;20214;-66
2023/04/27 11:06:32;;;;;;;1.90;1.80;;;17.70;99.90;;;;;;4896050;29;20627;-71
2023/04/27 11:08:59;;;;;;;3.53;2.53;;;17.80;99.90;;;;;;4896069;29;20211;-68
2023/04/27 11:11:26;;;;;;;3.47;2.63;;;17.90;99.90;;;;;;4893290;29;20210;-63
2023/04/27 11:13:55;;;;;;;2.40;2.13;;;17.90;99.90;;;;;;4891311;29;20203;-63
2023/04/27 11:16:23;;;;;;;2.10;2.00;;;17.70;99.90;;;;;;4896002;29;20637;-62
2023/04/27 11:18:50;;;;;;;2.57;1.30;;;18.10;99.90;;;;;;4895940;29;20287;-67
2023/04/27 11:21:19;;;;;;;1.60;1.50;;;18.20;99.90;;;;;;4897317;29;20211;-62
2023/04/27 11:23:46;;;;;;;4.73;2.00;;;18.20;99.90;;;;;;4895577;29;20218;-63
2023/04/27 11:26:15;;;;;;;1.23;1.23;;;18.20;99.90;;;;;;4894819;29;20262;-63
2023/04/27 11:28:43;;;;;;;0.87;0.87;;;18.10;99.90;;;;;;4890719;29;20203;-63
2023/04/27 11:31:12;;;;;;;0.80;0.80;;;17.80;99.90;;;;;;4894686;29;20223;-63
2023/04/27 11:33:39;;;;;;;1.00;1.00;;;17.70;99.90;;;;;;4895981;29;20229;-63
2023/04/27 11:36:16;;;;;;;2.37;1.03;;;17.80;99.90;;;;;;4895641;29;20234;-62
2023/04/27 11:38:43;;;;;;;1.13;1.03;;;17.40;99.90;;;;;;4895879;29;20294;-66
2023/04/27 11:41:10;;;;;;;1.07;0.70;;;17.10;99.90;;;;;;4892348;29;20583;-66
2023/04/27 11:43:40;;;;;;;1.43;0.83;;;17.00;99.90;;;;;;4878244;29;20200;-64
2023/04/27 11:46:09;;;;;;;1.40;0.80;;;17.20;99.90;;;;;;4889496;29;20217;-66
2023/04/27 11:48:39;;;;;;;2.00;1.00;;;17.80;99.90;;;;;;4895597;29;20666;-65
2023/04/27 11:51:06;;;;;;;1.00;0.70;;;18.20;99.90;;;;;;4895720;29;20230;-65
2023/04/27 11:53:35;;;;;;;0.93;0.80;;;18.50;99.90;;;;;;4895463;29;20211;-66
2023/04/27 11:56:04;;;;;;;1.00;1.00;;;18.70;99.90;;;;;;4895564;29;20713;-65
2023/04/27 11:58:33;;;;;;;1.43;0.80;;;18.70;99.90;;;;;;4890271;29;20216;-65
2023/04/27 12:01:00;;;;;;;1.27;0.70;;;18.70;99.90;;;;;;4888304;29;20542;-64
2023/04/27 12:03:29;;;;;;;1.63;0.90;;;18.60;99.90;;;;;;4890104;29;20262;-66
2023/04/27 12:05:57;;;;;;;2.30;0.80;;;18.80;99.90;;;;;;4895443;29;20204;-64
2023/04/27 12:08:25;;;;;;;0.60;0.60;;;19.10;99.90;;;;;;4895475;29;20211;-64
2023/04/27 12:10:52;;;;;;;1.17;0.90;;;19.20;99.90;;;;;;4895503;29;20235;-64
2023/04/27 12:13:19;;;;;;;1.67;0.80;;;19.10;99.90;;;;;;4895605;29;20215;-63
2023/04/27 12:15:46;;;;;;;2.87;0.80;;;19.00;99.90;;;;;;4887454;29;20734;-63
2023/04/27 12:18:13;;;;;;;2.57;0.47;;;18.90;99.90;;;;;;4890570;29;20211;-65
2023/04/27 12:20:40;;;;;;;0.93;0.87;;;18.70;99.90;;;;;;4895232;29;20592;-64
2023/04/27 12:23:08;;;;;;;0.60;0.60;;;18.60;99.90;;;;;;4895434;29;20274;-65
2023/04/27 12:25:35;;;;;;;0.70;0.70;;;18.60;99.90;;;;;;4895498;29;20211;-64
2023/04/27 12:28:02;;;;;;;0.80;0.80;;;18.60;99.90;;;;;;4895408;29;20223;-63
2023/04/27 12:30:29;;;;;;;1.53;0.73;;;18.70;99.90;;;;;;4895037;29;20298;-64
2023/04/27 12:32:58;;;;;;;0.83;0.73;;;18.60;99.90;;;;;;4894194;29;20219;-64
2023/04/27 12:35:25;;;;;;;2.37;0.60;;;18.60;99.90;;;;;;4894040;29;20223;-64
2023/04/27 12:37:52;;;;;;;0.63;0.63;;;18.50;99.90;;;;;;4895585;29;20203;-66
2023/04/27 12:40:22;;;;;;;1.20;0.60;;;18.40;99.90;;;;;;4895391;29;20581;-65
2023/04/27 12:42:49;;;;;;;1.60;0.70;;;18.70;99.90;;;;;;4896410;29;20207;-64
2023/04/27 12:45:16;;;;;;;1.07;0.60;;;18.80;99.90;;;;;;4898764;29;20219;-65
2023/04/27 12:47:43;;;;;;;0.60;0.60;;;18.70;99.90;;;;;;4898378;29;20211;-63
2023/04/27 12:50:10;;;;;;;0.80;0.80;;;18.60;99.90;;;;;;4889979;29;20226;-65
2023/04/27 12:52:37;;;;;;;0.83;0.73;;;18.60;99.90;;;;;;4894812;29;20215;-64
2023/04/27 12:55:05;;;;;;;0.50;0.50;;;18.50;99.90;;;;;;4898297;29;20207;-64